ADDS METAR Data INFO
IDs: Format: Raw Decoded Include TAF

Data at: 0430 UTC 28 Jul 2017

KPPA 280415Z AUTO 05005KT 10SM SCT120 23/21 A3008 RMK AO2 T02290205
KPPA 280355Z AUTO 08005KT 10SM SCT120 23/21 A3008 RMK AO2 T02290205
KPPA 280335Z AUTO 07005KT 10SM SCT120 23/21 A3008 RMK AO2 T02300207
KPPA 280315Z AUTO 05005KT 10SM SCT120 23/21 A3008 RMK AO2 LTG DSNT NW T02300207
KPPA 280255Z AUTO 01004KT 10SM CLR 23/21 A3007 RMK AO2 T02310206
KPPA 280235Z AUTO 06003KT 10SM SCT120 23/21 A3007 RMK AO2 T02320207
KPPA 280215Z AUTO 06005KT 10SM BKN120 24/21 A3007 RMK AO2 T02350206
KPPA 280155Z AUTO 08004KT 10SM BKN120 24/20 A3007 RMK AO2 T02370204
KPPA 280135Z AUTO 09006KT 10SM SCT120 24/20 A3007 RMK AO2 T02400203
KPPA 280115Z AUTO 09008KT 10SM BKN120 24/20 A3007 RMK AO2 LTG DSNT SE T02420204
KPPA 280055Z AUTO 09011KT 10SM SCT120 24/21 A3007 RMK AO2 T02410205
KPPA 280035Z AUTO 08009KT 10SM CLR 24/20 A3006 RMK AO2 LTG DSNT SE T02410203
KPPA 280015Z AUTO 06007KT 10SM SCT120 24/20 A3005 RMK AO2 LTG DSNT E AND SE T02380200
KPPA 272355Z AUTO 06008KT 10SM SCT120 24/20 A3006 RMK AO2 LTG DSNT SE T02350202 10329 20231
KPPA 272335Z AUTO 07010KT 10SM CLR 24/20 A3006 RMK AO2 LTG DSNT E T02400204
KPPA 272315Z AUTO 06008KT 10SM SCT110 24/22 A3006 RMK AO2 LTG DSNT NE AND E T02350215
KPPA 272255Z AUTO 03016G19KT 10SM -VCTSDZ SCT024 SCT033 BKN110 24/22 A3007 RMK AO2 LTG DSNT NE THRU SE T02420220
KPPA 272235Z AUTO 35010KT 10SM -RA SCT024 BKN041 OVC100 24/21 A3007 RMK AO2 LTG DSNT N T02400206
KPPA 272215Z AUTO 28011KT 7SM RA SCT023 SCT032 OVC050 23/20 A3008 RMK AO2 LTG DSNT ALQS T02330202
KPPA 272155Z AUTO 27018G27KT 10SM RA BKN050 BKN065 BKN080 27/19 A3009 RMK AO2 LTG DSNT ALQS T02740193
KPPA 272135Z AUTO 09004KT 10SM BKN110 31/18 A3007 RMK AO2 LTG DSNT ALQS T03100179
KPPA 272115Z AUTO 07006KT 10SM SCT046 SCT110 32/18 A3008 RMK AO2 LTG DSNT N T03180182
KPPA 272055Z AUTO 07005KT 10SM SCT044 BKN110 32/18 A3009 RMK AO2 T03160180
KPPA 272035Z AUTO 07006KT 10SM SCT042 OVC110 33/18 A3010 RMK AO2 T03250184
KPPA 272015Z AUTO 07003KT 10SM OVC100 32/18 A3010 RMK AO2 T03180183
KPPA 271955Z AUTO 05007KT 10SM BKN100 32/18 A3011 RMK AO2 T03220182
KPPA 271935Z AUTO 09003KT 10SM OVC100 31/18 A3012 RMK AO2 T03120181
KPPA 271915Z AUTO 07006KT 10SM BKN110 31/19 A3012 RMK AO2 T03120186
KPPA 271855Z AUTO 05010KT 010V070 10SM CLR 32/19 A3013 RMK AO2 T03160189
KPPA 271835Z AUTO 03007KT 10SM SCT034 32/19 A3014 RMK AO2 T03150185
KPPA 271815Z AUTO 09006KT 10SM SCT034 31/19 A3014 RMK AO2 T03120188
KPPA 271755Z AUTO 05008KT 10SM SCT032 31/19 A3014 RMK AO2 T03070187 10307 20232
KPPA 271730Z AUTO 03005KT 10SM SCT030 30/19 A3015 RMK AO2 T03010189
KPPA 271715Z AUTO 04008KT 10SM CLR 30/19 A3016 RMK AO2 T02960190
KPPA 271655Z AUTO 36007KT 10SM SCT100 28/19 A3016 RMK AO2 T02840189
KPPA 271635Z AUTO 01006KT 10SM SCT100 28/19 A3017 RMK AO2 T02780191
KPPA 271615Z AUTO 36007KT 10SM SCT100 27/19 A3017 RMK AO2 T02740193
KPPA 271555Z AUTO 35010KT 10SM BKN100 27/19 A3017 RMK AO2 T02720190
KPPA 271535Z AUTO 01008KT 10SM CLR 27/19 A3017 RMK AO2 T02710191
KPPA 271515Z AUTO 33012G16KT 10SM CLR 28/19 A3016 RMK AO2 T02760194
KPPA 271455Z AUTO 36005KT 10SM CLR 27/19 A3016 RMK AO2 T02650194
KPPA 271435Z AUTO 35007KT 10SM SCT100 25/19 A3016 RMK AO2 T02490192
KPPA 271415Z AUTO 02006KT 10SM SCT100 SCT120 25/20 A3016 RMK AO2 T02450195
KPPA 271355Z AUTO 02008KT 10SM SCT120 24/20 A3015 RMK AO2 T02410195
KPPA 271335Z AUTO 01008KT 10SM SCT120 24/20 A3014 RMK AO2 T02390201
KPPA 271315Z AUTO 36008KT 10SM OVC120 24/20 A3014 RMK AO2 T02380200
KPPA 271255Z AUTO 36009KT 10SM OVC120 24/19 A3013 RMK AO2 T02390191
KPPA 271235Z AUTO 34007KT 10SM OVC110 24/19 A3013 RMK AO2 LTG DSNT NW T02380188
KPPA 271215Z AUTO 33007KT 10SM BKN110 24/19 A3012 RMK AO2 LTG DSNT NW T02350186
KPPA 271155Z AUTO 32006KT 10SM BKN120 23/19 A3012 RMK AO2 T02330185 10260 20230
KPPA 271135Z AUTO 33007KT 10SM CLR 23/19 A3012 RMK AO2 T02320185
KPPA 271115Z AUTO 30006KT 10SM SCT120 23/19 A3011 RMK AO2 T02310185
KPPA 271055Z AUTO 31005KT 10SM SCT120 23/18 A3011 RMK AO2 T02310182
KPPA 271035Z AUTO 31006KT 10SM CLR 24/17 A3011 RMK AO2 T02400173
KPPA 271015Z AUTO 30009KT 10SM SCT120 25/17 A3011 RMK AO2 LTG DSNT N AND NW T02460173
KPPA 270955Z AUTO 31007KT 10SM SCT120 24/18 A3011 RMK AO2 LTG DSNT N T02390180
KPPA 270935Z AUTO 31003KT 10SM CLR 24/18 A3011 RMK AO2 LTG DSNT NW T02380180
KPPA 270915Z AUTO 33004KT 10SM CLR 24/18 A3010 RMK AO2 T02380176
KPPA 270855Z AUTO 27005KT 10SM SCT100 25/17 A3010 RMK AO2 LTG DSNT N AND NW T02500171
KPPA 270835Z AUTO 25006KT 10SM CLR 25/18 A3009 RMK AO2 LTG DSNT SW T02540175
KPPA 270815Z AUTO 22006KT 10SM CLR 25/18 A3009 RMK AO2 T02500181
KPPA 270755Z AUTO 20003KT 10SM CLR 25/18 A3009 RMK AO2 LTG DSNT NW T02500181
KPPA 270735Z AUTO 00000KT 10SM CLR 26/18 A3007 RMK AO2 T02560182
KPPA 270715Z AUTO 00000KT 10SM CLR 25/18 A3008 RMK AO2 LTG DSNT N T02460181
KPPA 270655Z AUTO 00000KT 10SM CLR 25/19 A3008 RMK AO2 LTG DSNT N AND W T02490186
KPPA 270635Z AUTO 00000KT 10SM CLR 25/19 A3007 RMK AO2 T02530185
KPPA 270615Z AUTO 00000KT 10SM CLR 26/19 A3007 RMK AO2 T02550187
KPPA 270555Z AUTO 35006KT 10SM CLR 26/19 A3008 RMK AO2 T02560191 10366 20256 403900255
KPPA 270535Z AUTO 33008KT 10SM CLR 27/19 A3009 RMK AO2 LTG DSNT W T02720185
KPPA 270515Z AUTO 23015KT 10SM CLR 29/16 A3006 RMK AO2 LTG DSNT W T02860158
KPPA 270455Z AUTO 20014G20KT 10SM CLR 30/14 A3004 RMK AO2 LTG DSNT W T02980141
KPPA 270435Z AUTO 20008KT 10SM CLR 29/15 A3006 RMK AO2 T02870151
KPPA 270415Z AUTO 18005KT 10SM CLR 30/15 A3007 RMK AO2 T03030145
KPPA 270355Z AUTO 00000KT 10SM CLR 29/16 A3007 RMK AO2 T02940161
KPPA 270335Z AUTO 00000KT 10SM SCT090 29/17 A3006 RMK AO2 T02860172
KPPA 270315Z AUTO 02005KT 10SM VCTS OVC100 30/17 A3007 RMK AO2 LTG DSNT W THRU NE T03010169
KPPA 270255Z AUTO 17007KT 10SM VCTS BKN100 BKN120 33/13 A3006 RMK AO2 LTG DSNT NW THRU NE T03260129
KPPA 270235Z AUTO 17010KT 10SM SCT110 33/13 A3005 RMK AO2 LTG DSNT NE T03270131
KPPA 270215Z AUTO 16011KT 10SM CLR 33/13 A3003 RMK AO2 T03300133
KPPA 270155Z AUTO 17014G21KT 10SM CLR 34/13 A3002 RMK AO2 LTG DSNT N AND NE T03350134
KPPA 270135Z AUTO 19012KT 10SM CLR 34/13 A3001 RMK AO2 LTG DSNT NE AND NW T03420127
KPPA 270115Z AUTO 18015G18KT 10SM SCT110 35/13 A3001 RMK AO2 LTG DSNT N T03450128
KPPA 270055Z AUTO 18016G21KT 10SM SCT120 35/13 A3000 RMK AO2 T03490127
KPPA 270035Z AUTO 19015G20KT 10SM CLR 36/13 A2999 RMK AO2 T03550128
KPPA 270015Z AUTO 17014G20KT 10SM CLR 36/13 A2999 RMK AO2 T03610129
KPPA 262355Z AUTO 18014G20KT 10SM CLR 37/13 A2999 RMK AO2 T03660131 10390 20366
KPPA 262335Z AUTO 18013G19KT 10SM SCT100 38/13 A2999 RMK AO2 T03750130
KPPA 262315Z AUTO 19012G19KT 10SM SCT110 38/13 A2999 RMK AO2 T03810128
KPPA 262255Z AUTO 19014G20KT 10SM SCT090 BKN120 38/13 A2999 RMK AO2 T03820130
KPPA 262235Z AUTO 19015G19KT 10SM SCT090 SCT110 39/13 A2999 RMK AO2 T03860126
KPPA 262215Z AUTO 23011G21KT 10SM SCT090 BKN120 38/13 A2999 RMK AO2 T03810125
KPPA 262155Z AUTO 20014G18KT 10SM SCT100 39/13 A3000 RMK AO2 T03870129
KPPA 262135Z AUTO 22015G20KT 10SM CLR 39/13 A3001 RMK AO2 LTG DSNT NE T03860131
KPPA 262115Z AUTO 19016G22KT 10SM CLR 38/13 A3001 RMK AO2 LTG DSNT NE T03840131
KPPA 262055Z AUTO 20013G23KT 10SM SCT085 38/13 A3002 RMK AO2 T03820131
KPPA 262035Z AUTO 18017G20KT 10SM SCT085 38/14 A3003 RMK AO2 T03830135
KPPA 262015Z AUTO 19012G22KT 10SM SCT085 SCT100 38/14 A3004 RMK AO2 T03810135
KPPA 261955Z AUTO 19016G20KT 10SM SCT110 39/13 A3004 RMK AO2 T03870134
KPPA 261935Z AUTO 20015G20KT 10SM CLR 38/13 A3005 RMK AO2 T03830134
KPPA 261915Z AUTO 21015G20KT 10SM CLR 38/13 A3006 RMK AO2 T03840130
KPPA 261855Z AUTO 22010G18KT 10SM CLR 38/14 A3006 RMK AO2 T03800135
KPPA 261835Z AUTO 19009KT 10SM CLR 38/14 A3007 RMK AO2 T03810137
KPPA 261815Z AUTO 19013G21KT 10SM CLR 37/13 A3007 RMK AO2 T03740134
KPPA 261755Z AUTO 22012G20KT 10SM CLR 37/14 A3008 RMK AO2 T03700135 10372 20261
KPPA 261735Z AUTO 22012G22KT 10SM CLR 37/13 A3008 RMK AO2 T03660131
KPPA 261715Z AUTO 22013G21KT 10SM CLR 36/14 A3008 RMK AO2 T03630136
KPPA 261655Z AUTO 24017KT 10SM CLR 36/14 A3009 RMK AO2 T03560135
KPPA 261635Z AUTO 22018G21KT 10SM CLR 35/14 A3009 RMK AO2 T03510138